Weather History for Martinsville, VA

Change the Weather History Date:

Wednesday, October 24, 2012

  Actual Average (KGSO) Record (KGSO)
Temperature  
Mean Temperature 66 °F 57 °F  
Max Temperature 84 °F 68 °F 84 °F (2001)
Min Temperature 48 °F 46 °F 28 °F (1969)
Degree Days  
Heating Degree Days 0 9  
Month to date heating degree days 136  
Since 1 July heating degree days 167  
Cooling Degree Days 1 1  
Month to date cooling degree days 33  
Year to date cooling degree days 1480  
Growing Degree Days 16 (Base 50)    
Moisture  
Dew Point 51 °F    
Average Humidity 73    
Maximum Humidity 100    
Minimum Humidity 25    
Precipitation  
Precipitation 0.00 in 0.10 in 1.13 in (1914)
Month to date precipitation 2.41  
Year to date precipitation 35.39  
Sea Level Pressure  
Sea Level Pressure 30.16 in    
Wind  
Wind Speed 0 mph (SE)    
Max Wind Speed 7 mph    
Max Gust Speed -    
Visibility 9 miles    
Events      
T = Trace of Precipitation, MM = Missing Value Source: NWS Daily Summary

Daily Weather History Graph

Daily Weather History Graph

Search for Another Location

Airport:

Trip Planner

Search our weather history database for the weather conditions in past years. The results will help you decide how hot, cold, wet, or windy it might be!

Date:

Astronomy

Oct. 24, 2012 Rise Set
Actual Time 7:36 AM EDT 6:31 PM EDT
Civil Twilight 7:09 AM EDT 6:57 PM EDT
Nautical Twilight 6:39 AM EDT 7:28 PM EDT
Astronomical Twilight 6:09 AM EDT 7:58 PM EDT
Moon 3:40 PM EDT (10/24) 2:37 AM EDT (10/24)
Length of Visible Light 11h 48m
Length of Day
10h 55m
Waxing Gibbous, 76% of the Moon is Illuminated
Oct 24
Waxing Gibbous
Oct 29
Full
Nov 6
Last Quarter
Nov 13
New
Nov 20
First Quarter

Hourly Weather History & Observations

Time (EDT) Temp. Dew Point Humidity Pressure Visibility Wind Dir Wind Speed Gust Speed Precip Events Conditions
12:15 AM 51.8 °F 51.8 °F 100% 30.16 in 10.0 mi Calm Calm - N/A   Clear
12:35 AM 51.8 °F 51.8 °F 100% 30.16 in 10.0 mi Calm Calm - N/A   Clear
12:55 AM 51.8 °F 51.8 °F 100% 30.16 in 7.0 mi Calm Calm - N/A   Clear
1:15 AM 51.8 °F 51.8 °F 100% 30.16 in 10.0 mi Calm Calm - N/A   Clear
1:35 AM 51.8 °F 51.8 °F 100% 30.16 in 7.0 mi Calm Calm - N/A   Clear
2:35 AM 50.0 °F 50.0 °F 100% 30.16 in 10.0 mi Calm Calm - N/A   Clear
2:55 AM 48.2 °F 48.2 °F 100% 30.16 in 10.0 mi Calm Calm - N/A   Clear
3:15 AM 48.2 °F 48.2 °F 100% 30.16 in 7.0 mi Calm Calm - N/A   Clear
3:35 AM 50.0 °F 50.0 °F 100% 30.15 in 7.0 mi Calm Calm - N/A   Clear
3:55 AM 50.0 °F 50.0 °F 100% 30.15 in 7.0 mi Calm Calm - N/A   Clear
4:15 AM 48.2 °F 48.2 °F 100% 30.15 in 5.0 mi Calm Calm - N/A   Clear
4:35 AM 48.2 °F 48.2 °F 100% 30.15 in 7.0 mi Calm Calm - N/A   Clear
4:55 AM 48.2 °F 48.2 °F 100% 30.16 in 7.0 mi Calm Calm - N/A   Clear
5:15 AM 48.2 °F 48.2 °F 100% 30.16 in 7.0 mi Calm Calm - N/A   Clear
5:35 AM 48.2 °F 48.2 °F 100% 30.17 in 10.0 mi Calm Calm - N/A   Clear
5:55 AM 48.2 °F 48.2 °F 100% 30.17 in 10.0 mi Calm Calm - N/A   Clear
6:15 AM 48.2 °F 48.2 °F 100% 30.18 in 10.0 mi Calm Calm - N/A   Clear
6:35 AM 48.2 °F 48.2 °F 100% 30.18 in 7.0 mi Calm Calm - N/A   Clear
7:15 AM 48.2 °F 48.2 °F 100% 30.19 in 10.0 mi Calm Calm - N/A   Clear
7:35 AM 48.2 °F 48.2 °F 100% 30.19 in 10.0 mi Calm Calm - N/A   Clear
7:55 AM 48.2 °F 48.2 °F 100% 30.20 in 7.0 mi Calm Calm - N/A   Clear
8:15 AM 48.2 °F 48.2 °F 100% 30.20 in 4.0 mi Calm Calm - N/A   Clear
8:35 AM 48.2 °F 48.2 °F 100% 30.21 in 7.0 mi Calm Calm - N/A   Clear
8:55 AM 51.8 °F 51.8 °F 100% 30.21 in 10.0 mi Calm Calm - N/A   Clear
9:15 AM 57.2 °F 51.8 °F 82% 30.22 in 10.0 mi Calm Calm - N/A   Clear
9:35 AM 59.0 °F 53.6 °F 82% 30.22 in 10.0 mi Calm Calm - N/A   Clear
9:55 AM 60.8 °F 55.4 °F 82% 30.22 in 10.0 mi Calm Calm - N/A   Clear
10:35 AM 68.0 °F 55.4 °F 64% 30.21 in 10.0 mi Calm Calm - N/A   Clear
10:55 AM 71.6 °F 55.4 °F 57% 30.20 in 10.0 mi Calm Calm - N/A   Clear
11:15 AM 75.2 °F 53.6 °F 47% 30.20 in 10.0 mi Calm Calm - N/A   Clear
11:35 AM 73.4 °F 55.4 °F 53% 30.19 in 10.0 mi Calm Calm - N/A   Clear
11:55 AM 77.0 °F 53.6 °F 44% 30.19 in 10.0 mi Calm Calm - N/A   Clear
12:15 PM 78.8 °F 53.6 °F 42% 30.18 in 10.0 mi Calm Calm - N/A   Clear
12:35 PM 80.6 °F 50.0 °F 34% 30.17 in 10.0 mi Calm Calm - N/A   Clear
12:55 PM 80.6 °F 48.2 °F 32% 30.16 in 10.0 mi Calm Calm - N/A   Clear
1:15 PM 80.6 °F 50.0 °F 34% 30.15 in 10.0 mi NNW 4.6 mph - N/A   Clear
1:35 PM 82.4 °F 50.0 °F 32% 30.14 in 10.0 mi East 4.6 mph - N/A   Clear
1:55 PM 82.4 °F 48.2 °F 30% 30.13 in 10.0 mi East 6.9 mph - N/A   Clear
2:15 PM 84.2 °F 48.2 °F 29% 30.13 in 10.0 mi SE 4.6 mph - N/A   Clear
2:35 PM 82.4 °F 48.2 °F 30% 30.12 in 10.0 mi Calm Calm - N/A   Clear
3:15 PM 84.2 °F 46.4 °F 27% 30.11 in 10.0 mi Calm Calm - N/A   Clear
3:35 PM 84.2 °F 46.4 °F 27% 30.11 in 10.0 mi Calm Calm - N/A   Clear
3:55 PM 84.2 °F 44.6 °F 25% 30.11 in 10.0 mi SE 5.8 mph - N/A   Clear
4:15 PM 84.2 °F 46.4 °F 27% 30.11 in 10.0 mi SSW 3.5 mph - N/A   Clear
4:35 PM 84.2 °F 48.2 °F 29% 30.11 in 10.0 mi Calm Calm - N/A   Clear
5:15 PM 82.4 °F 48.2 °F 30% 30.11 in 10.0 mi Calm Calm - N/A   Clear
5:35 PM 82.4 °F 46.4 °F 28% 30.11 in 10.0 mi Calm Calm - N/A   Clear
5:55 PM 78.8 °F 51.8 °F 39% 30.11 in 10.0 mi SSE 3.5 mph - N/A   Clear
6:15 PM 77.0 °F 53.6 °F 44% 30.12 in 10.0 mi Calm Calm - N/A   Clear
6:35 PM 73.4 °F 53.6 °F 50% 30.12 in 10.0 mi Calm Calm - N/A   Clear
6:55 PM 69.8 °F 55.4 °F 60% 30.12 in 10.0 mi Calm Calm - N/A   Clear
7:15 PM 68.0 °F 55.4 °F 64% 30.13 in 10.0 mi Calm Calm - N/A   Clear
7:35 PM 64.4 °F 55.4 °F 73% 30.13 in 10.0 mi Calm Calm - N/A   Clear
7:55 PM 64.4 °F 55.4 °F 73% 30.14 in 10.0 mi Calm Calm - N/A   Clear
8:15 PM 60.8 °F 53.6 °F 77% 30.14 in 10.0 mi Calm Calm - N/A   Clear
8:35 PM 60.8 °F 53.6 °F 77% 30.15 in 10.0 mi Calm Calm - N/A   Clear
8:55 PM 59.0 °F 53.6 °F 82% 30.15 in 10.0 mi Calm Calm - N/A   Clear
9:15 PM 60.8 °F 53.6 °F 77% 30.15 in 10.0 mi Calm Calm - N/A   Clear
9:35 PM 59.0 °F 53.6 °F 82% 30.15 in 10.0 mi Calm Calm - N/A   Clear
10:15 PM 57.2 °F 53.6 °F 88% 30.16 in 10.0 mi Calm Calm - N/A   Clear
10:35 PM 55.4 °F 55.4 °F 100% 30.16 in 10.0 mi Calm Calm - N/A   Clear
10:55 PM 55.4 °F 55.4 °F 100% 30.16 in 10.0 mi Calm Calm - N/A   Clear
11:15 PM 55.4 °F 55.4 °F 100% 30.16 in 10.0 mi Calm Calm - N/A   Clear
11:35 PM 55.4 °F 55.4 °F 100% 30.16 in 10.0 mi Calm Calm - N/A   Clear
11:55 PM 53.6 °F 53.6 °F 100% 30.16 in 10.0 mi Calm Calm - N/A   Clear